Milos, Greece
Current Conditions -  °F | °C
As of 7:50 AM on Monday 22 Dec 2014 (Local Time) from LGSR Reporting Station
NA  
Wind Chill: 54°   Ceiling: NA
Heat Index: 54°   Visibility: NA
Dew Point: 39°   Wind: 0mph
Humidity: 58%   Direction: NA
Pressure: 30.27"   Gusts: NA
Location:  36.75°N, 24.43°E
Report Text: LGSR 220450Z AUTO 00000KT //// // ////// 12/04 Q1025 RE//
Loading
Personal Weather Stations






























Interactive Weather Map New forecast layout! Learn more

10-Day Weather Forecast

Advertisements
Track Severe Weather on mobile